Time;durP1;ratioP1;P1;durP2;ratioP2;P2;SDS_P1;SDS_P2;PMS_P1;PMS_P2;Temp;Humidity;BMP_temperature;BMP_pressure;BME280_temperature;BME280_humidity;BME280_pressure;Samples;Min_cycle;Max_cycle;Signal;HPM_P1;HPM_P2
2023/05/02 00:01:27;;;;;;;7.95;5.82;;;;;;;;;;5093274;28;20055;-64
2023/05/02 00:03:53;;;;;;;6.30;5.07;;;;;;;;;;5093480;28;20054;-63
2023/05/02 00:06:20;;;;;;;6.40;5.53;;;;;;;;;;5093134;28;20478;-64
2023/05/02 00:08:48;;;;;;;6.35;5.65;;;;;;;;;;5092855;28;20065;-63
2023/05/02 00:11:15;;;;;;;7.05;5.43;;;;;;;;;;5093029;28;20044;-64
2023/05/02 00:13:43;;;;;;;8.43;5.70;;;;;;;;;;5092707;28;20040;-64
2023/05/02 00:16:10;;;;;;;6.88;5.47;;;;;;;;;;5092810;28;20055;-64
2023/05/02 00:18:37;;;;;;;7.80;5.25;;;;;;;;;;5092394;28;20123;-64
2023/05/02 00:21:04;;;;;;;6.63;5.35;;;;;;;;;;5092815;28;20504;-64
2023/05/02 00:23:31;;;;;;;7.30;5.38;;;;;;;;;;5092517;28;20052;-64
2023/05/02 00:25:58;;;;;;;8.45;5.35;;;;;;;;;;5092694;28;20044;-64
2023/05/02 00:28:25;;;;;;;8.40;5.43;;;;;;;;;;5091966;28;20040;-64
2023/05/02 00:30:53;;;;;;;6.97;5.43;;;;;;;;;;5092362;28;20440;-64
2023/05/02 00:33:22;;;;;;;7.70;5.53;;;;;;;;;;5092370;28;20044;-64
2023/05/02 00:35:50;;;;;;;7.60;5.40;;;;;;;;;;5092521;28;20075;-64
2023/05/02 00:38:16;;;;;;;8.05;6.15;;;;;;;;;;5091984;28;20409;-63
2023/05/02 00:40:44;;;;;;;7.25;5.60;;;;;;;;;;5092209;28;20287;-64
2023/05/02 00:43:11;;;;;;;8.57;5.50;;;;;;;;;;5091713;28;20089;-63
2023/05/02 00:45:39;;;;;;;7.38;5.75;;;;;;;;;;5092210;28;20040;-64
2023/05/02 00:48:08;;;;;;;9.35;5.38;;;;;;;;;;5091630;28;20050;-63
2023/05/02 00:50:37;;;;;;;5.75;4.90;;;;;;;;;;5091958;28;20447;-63
2023/05/02 00:53:04;;;;;;;8.48;5.40;;;;;;;;;;5092027;28;20040;-63
2023/05/02 00:55:31;;;;;;;6.40;5.20;;;;;;;;;;5091977;28;20044;-64
2023/05/02 00:57:58;;;;;;;6.93;5.50;;;;;;;;;;5091795;28;20047;-64
2023/05/02 01:00:31;;;;;;;7.60;5.57;;;;;;;;;;5092321;28;20048;-64
2023/05/02 01:03:09;;;;;;;7.25;5.53;;;;;;;;;;5092582;28;20040;-64
2023/05/02 01:05:45;;;;;;;7.55;5.97;;;;;;;;;;5091740;28;20044;-64
2023/05/02 01:08:20;;;;;;;7.55;6.72;;;;;;;;;;5092864;28;20098;-64
2023/05/02 01:10:52;;;;;;;6.63;5.50;;;;;;;;;;5092842;28;20044;-64
2023/05/02 01:13:22;;;;;;;6.43;5.15;;;;;;;;;;5092531;28;20048;-64
2023/05/02 01:15:50;;;;;;;7.20;5.40;;;;;;;;;;5092232;28;20054;-63
2023/05/02 01:18:19;;;;;;;7.68;5.50;;;;;;;;;;5092420;28;20503;-63
2023/05/02 01:20:51;;;;;;;7.22;5.80;;;;;;;;;;5091629;28;20048;-64
2023/05/02 01:23:28;;;;;;;7.50;5.63;;;;;;;;;;5091589;28;20052;-64
2023/05/02 01:26:06;;;;;;;6.68;5.60;;;;;;;;;;5090943;28;20272;-63
2023/05/02 01:28:49;;;;;;;7.75;5.78;;;;;;;;;;5091432;28;20047;-64
2023/05/02 01:31:19;;;;;;;7.65;5.28;;;;;;;;;;5091058;28;20050;-62
2023/05/02 01:33:47;;;;;;;8.70;5.70;;;;;;;;;;5091271;28;20450;-63
2023/05/02 01:36:16;;;;;;;9.95;5.72;;;;;;;;;;5090662;28;20044;-63
2023/05/02 01:38:44;;;;;;;6.60;5.18;;;;;;;;;;5090702;28;20047;-63
2023/05/02 01:41:12;;;;;;;9.63;5.72;;;;;;;;;;5091082;28;20048;-63
2023/05/02 01:43:40;;;;;;;8.90;5.00;;;;;;;;;;5090720;28;20040;-63
2023/05/02 01:46:10;;;;;;;6.75;5.05;;;;;;;;;;5090628;28;20044;-65
2023/05/02 01:48:37;;;;;;;6.50;5.03;;;;;;;;;;5091185;28;20135;-65
2023/05/02 01:51:07;;;;;;;6.75;5.35;;;;;;;;;;5090365;28;20043;-62
2023/05/02 01:53:35;;;;;;;6.82;5.50;;;;;;;;;;5090884;28;20055;-62
2023/05/02 01:56:03;;;;;;;6.95;5.43;;;;;;;;;;5090367;28;20048;-63
2023/05/02 01:58:32;;;;;;;6.50;5.15;;;;;;;;;;5090748;28;20048;-63
2023/05/02 02:01:00;;;;;;;8.73;5.85;;;;;;;;;;5090622;28;20489;-64
2023/05/02 02:03:30;;;;;;;8.00;6.28;;;;;;;;;;5090807;28;20051;-63
2023/05/02 02:05:58;;;;;;;8.68;6.30;;;;;;;;;;5090533;28;20051;-63
2023/05/02 02:08:25;;;;;;;7.22;5.43;;;;;;;;;;5090511;28;20040;-63
2023/05/02 02:10:57;;;;;;;10.32;5.70;;;;;;;;;;5090315;28;20044;-62
2023/05/02 02:13:29;;;;;;;6.87;5.30;;;;;;;;;;5090768;28;20048;-63
2023/05/02 02:16:00;;;;;;;6.87;5.63;;;;;;;;;;5089924;28;20048;-62
2023/05/02 02:18:29;;;;;;;8.43;5.90;;;;;;;;;;5090645;28;20040;-63
2023/05/02 02:20:59;;;;;;;6.60;5.45;;;;;;;;;;5090664;28;20140;-62
2023/05/02 02:23:28;;;;;;;7.85;5.38;;;;;;;;;;5090603;28;20044;-63
2023/05/02 02:25:56;;;;;;;7.95;5.43;;;;;;;;;;5090807;28;20048;-63
2023/05/02 02:28:23;;;;;;;7.07;5.50;;;;;;;;;;5090030;28;20048;-63
2023/05/02 02:30:50;;;;;;;7.93;5.75;;;;;;;;;;5090503;28;20044;-66
2023/05/02 02:33:17;;;;;;;7.93;6.32;;;;;;;;;;5090377;28;20123;-63
2023/05/02 02:35:51;;;;;;;7.40;5.72;;;;;;;;;;5090129;28;20048;-63
2023/05/02 02:38:26;;;;;;;6.68;5.10;;;;;;;;;;5090184;28;20044;-63
2023/05/02 02:40:57;;;;;;;6.43;4.85;;;;;;;;;;5090499;28;20052;-64
2023/05/02 02:43:32;;;;;;;7.00;5.35;;;;;;;;;;5090109;28;20425;-63
2023/05/02 02:46:08;;;;;;;9.80;6.05;;;;;;;;;;5090289;28;20044;-63
2023/05/02 02:48:40;;;;;;;7.53;5.65;;;;;;;;;;5089769;28;20094;-63
2023/05/02 02:51:13;;;;;;;9.20;5.90;;;;;;;;;;5089966;28;20044;-65
2023/05/02 02:53:50;;;;;;;6.05;4.93;;;;;;;;;;5090006;28;20443;-62
2023/05/02 02:56:23;;;;;;;7.78;5.10;;;;;;;;;;5090248;28;20051;-65
2023/05/02 02:58:54;;;;;;;;;;;;;;;;;;5090291;28;20045;-62
2023/05/02 03:01:24;;;;;;;6.55;5.45;;;;;;;;;;5090368;28;20357;-63
2023/05/02 03:03:55;;;;;;;8.07;5.15;;;;;;;;;;5090037;28;20413;-65
2023/05/02 03:06:24;;;;;;;9.57;5.25;;;;;;;;;;5090090;28;20401;-63
2023/05/02 03:08:51;;;;;;;7.10;4.82;;;;;;;;;;5089541;28;20056;-63
2023/05/02 03:11:17;;;;;;;6.47;4.78;;;;;;;;;;5089956;28;20044;-65
2023/05/02 03:13:44;;;;;;;6.93;5.20;;;;;;;;;;5089799;28;20055;-65
2023/05/02 03:16:34;;;;;;;6.35;5.05;;;;;;;;;;5090196;28;20040;-64
2023/05/02 03:19:00;;;;;;;6.75;4.85;;;;;;;;;;5089676;28;20044;-64
2023/05/02 03:21:30;;;;;;;7.78;5.05;;;;;;;;;;5090098;28;20052;-65
2023/05/02 03:23:57;;;;;;;6.38;4.68;;;;;;;;;;5090067;28;20044;-65
2023/05/02 03:26:24;;;;;;;7.47;5.32;;;;;;;;;;5090895;28;20048;-63
2023/05/02 03:28:51;;;;;;;8.07;5.38;;;;;;;;;;5093438;28;20137;-64
2023/05/02 03:31:18;;;;;;;6.18;5.00;;;;;;;;;;5093880;28;20051;-65
2023/05/02 03:33:45;;;;;;;7.05;5.25;;;;;;;;;;5093287;28;20564;-64
2023/05/02 03:36:11;;;;;;;6.35;4.88;;;;;;;;;;5093548;28;20658;-64
2023/05/02 03:38:39;;;;;;;7.10;5.55;;;;;;;;;;5093186;28;20436;-64
2023/05/02 03:41:06;;;;;;;7.00;5.35;;;;;;;;;;5093599;28;20429;-64
2023/05/02 03:43:33;;;;;;;6.82;5.72;;;;;;;;;;5093378;28;20044;-63
2023/05/02 03:46:05;;;;;;;6.22;5.25;;;;;;;;;;5092931;28;20051;-64
2023/05/02 03:48:31;;;;;;;7.45;5.50;;;;;;;;;;5093166;28;20502;-65
2023/05/02 03:50:58;;;;;;;12.10;5.47;;;;;;;;;;5092963;28;20044;-64
2023/05/02 03:53:25;;;;;;;7.47;5.85;;;;;;;;;;5093315;28;20074;-64
2023/05/02 03:55:53;;;;;;;8.27;6.32;;;;;;;;;;5093000;28;20051;-64
2023/05/02 03:58:19;;;;;;;7.78;5.82;;;;;;;;;;5093033;28;20053;-64
2023/05/02 04:00:46;;;;;;;9.48;5.68;;;;;;;;;;5092823;28;20143;-64
2023/05/02 04:03:13;;;;;;;7.45;5.50;;;;;;;;;;5092684;28;20058;-64
2023/05/02 04:05:39;;;;;;;7.78;6.10;;;;;;;;;;5092378;28;20058;-65
2023/05/02 04:08:06;;;;;;;9.23;5.95;;;;;;;;;;5092822;28;20040;-64
2023/05/02 04:10:32;;;;;;;6.90;5.65;;;;;;;;;;5092575;28;20044;-65
2023/05/02 04:13:01;;;;;;;8.80;5.57;;;;;;;;;;5093135;28;20048;-65
2023/05/02 04:15:28;;;;;;;7.82;5.78;;;;;;;;;;5092712;28;20097;-65
2023/05/02 04:17:55;;;;;;;10.23;6.85;;;;;;;;;;5092204;28;20085;-64
2023/05/02 04:20:21;;;;;;;7.50;5.57;;;;;;;;;;5092541;28;20062;-64
2023/05/02 04:22:49;;;;;;;8.93;6.10;;;;;;;;;;5092970;28;20044;-65
2023/05/02 04:25:15;;;;;;;11.20;6.65;;;;;;;;;;5092546;28;20510;-65
2023/05/02 04:27:42;;;;;;;7.93;5.85;;;;;;;;;;5092427;28;20046;-64
2023/05/02 04:30:11;;;;;;;7.82;5.95;;;;;;;;;;5092545;28;20044;-64
2023/05/02 04:32:38;;;;;;;7.63;6.00;;;;;;;;;;5092801;28;20056;-64
2023/05/02 04:35:05;;;;;;;8.60;6.25;;;;;;;;;;5092279;28;20044;-64
2023/05/02 04:37:32;;;;;;;7.43;6.35;;;;;;;;;;5091862;28;20048;-64
2023/05/02 04:39:59;;;;;;;8.80;6.20;;;;;;;;;;5091717;28;20043;-64
2023/05/02 04:42:26;;;;;;;7.88;6.30;;;;;;;;;;5092181;28;20405;-65
2023/05/02 04:44:53;;;;;;;10.90;6.35;;;;;;;;;;5092312;28;20456;-64
2023/05/02 04:47:20;;;;;;;8.65;6.10;;;;;;;;;;5091723;28;20044;-64
2023/05/02 04:49:47;;;;;;;10.02;6.88;;;;;;;;;;5091865;28;20040;-65
2023/05/02 04:52:14;;;;;;;10.07;6.15;;;;;;;;;;5091873;28;20044;-64
2023/05/02 04:54:40;;;;;;;11.75;6.43;;;;;;;;;;5091792;28;20044;-64
2023/05/02 04:57:08;;;;;;;10.30;5.88;;;;;;;;;;5114607;22;20050;-71
2023/05/02 04:59:35;;;;;;;13.15;6.20;;;;;;;;;;5111620;28;20039;-71
2023/05/02 05:02:02;;;;;;;11.80;6.03;;;;;;;;;;5111810;28;20540;-70
2023/05/02 05:04:30;;;;;;;11.55;7.00;;;;;;;;;;5112045;28;20462;-71
2023/05/02 05:06:56;;;;;;;14.88;6.60;;;;;;;;;;5111121;28;20138;-70
2023/05/02 05:09:23;;;;;;;8.65;6.50;;;;;;;;;;5111771;28;20054;-71
2023/05/02 05:11:50;;;;;;;9.60;6.53;;;;;;;;;;5111180;28;20040;-71
2023/05/02 05:14:16;;;;;;;10.38;7.25;;;;;;;;;;5111616;28;20399;-71
2023/05/02 05:16:43;;;;;;;10.02;7.93;;;;;;;;;;5111489;28;20511;-71
2023/05/02 05:19:10;;;;;;;12.48;7.95;;;;;;;;;;5111615;28;20484;-71
2023/05/02 05:21:37;;;;;;;11.00;7.88;;;;;;;;;;5112040;28;20056;-70
2023/05/02 05:24:05;;;;;;;12.25;8.05;;;;;;;;;;5111291;28;20050;-71
2023/05/02 05:26:31;;;;;;;10.68;8.40;;;;;;;;;;5111483;28;20047;-71
2023/05/02 05:28:58;;;;;;;11.27;8.02;;;;;;;;;;5110937;28;20052;-71
2023/05/02 05:31:24;;;;;;;11.95;8.38;;;;;;;;;;5111303;28;20040;-71
2023/05/02 05:33:51;;;;;;;11.25;9.07;;;;;;;;;;5111166;28;20074;-70
2023/05/02 05:36:17;;;;;;;11.25;8.75;;;;;;;;;;5111628;28;20067;-71
2023/05/02 05:38:46;;;;;;;12.32;9.55;;;;;;;;;;5110871;28;20050;-71
2023/05/02 05:41:12;;;;;;;12.95;8.98;;;;;;;;;;5111185;28;20557;-71
2023/05/02 05:43:39;;;;;;;11.60;9.38;;;;;;;;;;5111205;28;20394;-71
2023/05/02 05:46:05;;;;;;;11.00;8.23;;;;;;;;;;5111086;28;20069;-70
2023/05/02 05:48:32;;;;;;;11.90;8.93;;;;;;;;;;5110588;28;20485;-71
2023/05/02 05:51:03;;;;;;;13.85;9.07;;;;;;;;;;5110965;28;20481;-71
2023/05/02 05:53:30;;;;;;;14.90;9.30;;;;;;;;;;5110727;28;20501;-71
2023/05/02 05:55:58;;;;;;;13.82;9.63;;;;;;;;;;5110988;28;20073;-71
2023/05/02 05:58:24;;;;;;;11.48;9.25;;;;;;;;;;5110391;28;20051;-70
2023/05/02 06:00:51;;;;;;;12.93;9.02;;;;;;;;;;5110811;28;20053;-70
2023/05/02 06:03:17;;;;;;;13.98;9.25;;;;;;;;;;5110661;28;20047;-70
2023/05/02 06:05:44;;;;;;;12.27;9.40;;;;;;;;;;5110751;28;20046;-71
2023/05/02 06:08:11;;;;;;;14.80;9.07;;;;;;;;;;5109998;28;20047;-71
2023/05/02 06:10:37;;;;;;;12.55;9.48;;;;;;;;;;5111204;28;20050;-71
2023/05/02 06:13:05;;;;;;;14.75;9.73;;;;;;;;;;5110905;28;20051;-71
2023/05/02 06:15:33;;;;;;;14.20;9.15;;;;;;;;;;5110246;28;20046;-71
2023/05/02 06:18:00;;;;;;;14.70;9.27;;;;;;;;;;5110502;28;20190;-70
2023/05/02 06:20:26;;;;;;;13.55;9.32;;;;;;;;;;5110432;28;20039;-70
2023/05/02 06:22:53;;;;;;;11.88;9.05;;;;;;;;;;5110199;28;20051;-69
2023/05/02 06:25:19;;;;;;;15.93;9.38;;;;;;;;;;5110521;28;20044;-69
2023/05/02 06:27:46;;;;;;;11.18;8.77;;;;;;;;;;5110524;28;20427;-68
2023/05/02 06:30:14;;;;;;;14.90;9.52;;;;;;;;;;5110470;28;20401;-69
2023/05/02 06:32:42;;;;;;;12.98;8.95;;;;;;;;;;5110812;28;20050;-69
2023/05/02 06:35:10;;;;;;;14.38;9.77;;;;;;;;;;5110492;28;20340;-69
2023/05/02 06:37:36;;;;;;;14.48;9.70;;;;;;;;;;5110103;28;20039;-69
2023/05/02 06:40:04;;;;;;;16.00;10.25;;;;;;;;;;5110468;28;20044;-68
2023/05/02 06:42:30;;;;;;;13.52;9.85;;;;;;;;;;5111051;28;20493;-69
2023/05/02 06:44:57;;;;;;;16.20;9.95;;;;;;;;;;5110189;28;20039;-69
2023/05/02 06:47:25;;;;;;;15.07;10.00;;;;;;;;;;5110552;28;20051;-70
2023/05/02 06:49:52;;;;;;;15.20;10.00;;;;;;;;;;5109796;28;20409;-69
2023/05/02 06:52:19;;;;;;;14.77;9.95;;;;;;;;;;5110581;28;20112;-69
2023/05/02 06:54:45;;;;;;;13.70;10.07;;;;;;;;;;5110132;28;20040;-69
2023/05/02 06:57:12;;;;;;;16.52;10.32;;;;;;;;;;5109927;28;20054;-69
2023/05/02 06:59:39;;;;;;;19.23;10.93;;;;;;;;;;5110012;28;20043;-69
2023/05/02 07:02:06;;;;;;;12.75;9.63;;;;;;;;;;5111898;28;20488;-69
2023/05/02 07:04:34;;;;;;;14.13;10.32;;;;;;;;;;5114022;28;20043;-69
2023/05/02 07:07:00;;;;;;;14.18;10.38;;;;;;;;;;5113674;28;20048;-69
2023/05/02 07:09:27;;;;;;;17.20;10.23;;;;;;;;;;5114034;28;20048;-69
2023/05/02 07:11:53;;;;;;;14.63;10.70;;;;;;;;;;5113877;28;20044;-69
2023/05/02 07:14:20;;;;;;;17.55;11.32;;;;;;;;;;5113944;28;20047;-69
2023/05/02 07:16:47;;;;;;;15.95;11.10;;;;;;;;;;5113757;28;20047;-69
2023/05/02 07:19:13;;;;;;;16.55;11.13;;;;;;;;;;5113928;28;20481;-68
2023/05/02 07:21:41;;;;;;;16.10;10.68;;;;;;;;;;5113988;28;20048;-68
2023/05/02 07:24:08;;;;;;;15.48;11.07;;;;;;;;;;5113703;28;20039;-69
2023/05/02 07:26:35;;;;;;;18.88;11.32;;;;;;;;;;5113781;27;20050;-68
2023/05/02 07:29:01;;;;;;;15.43;11.00;;;;;;;;;;5113575;28;20047;-69
2023/05/02 07:31:28;;;;;;;16.60;11.13;;;;;;;;;;5113671;28;20048;-69
2023/05/02 07:33:54;;;;;;;15.50;11.35;;;;;;;;;;5113696;27;20047;-69
2023/05/02 07:36:21;;;;;;;16.42;10.82;;;;;;;;;;5113402;28;20043;-69
2023/05/02 07:38:49;;;;;;;16.13;10.57;;;;;;;;;;5113729;28;20046;-69
2023/05/02 07:41:16;;;;;;;14.85;10.43;;;;;;;;;;5113362;28;20044;-69
2023/05/02 07:43:42;;;;;;;18.38;11.68;;;;;;;;;;5113598;28;20050;-69
2023/05/02 07:46:09;;;;;;;16.85;11.52;;;;;;;;;;5113405;28;20052;-69
2023/05/02 07:48:36;;;;;;;16.42;11.65;;;;;;;;;;5113713;28;20565;-70
2023/05/02 07:51:06;;;;;;;16.73;10.82;;;;;;;;;;5113720;28;20500;-69
2023/05/02 07:53:33;;;;;;;18.02;11.15;;;;;;;;;;5113385;28;20043;-69
2023/05/02 07:56:03;;;;;;;17.08;10.77;;;;;;;;;;5113302;28;20040;-69
2023/05/02 07:58:29;;;;;;;17.73;11.02;;;;;;;;;;5113041;28;20047;-69
2023/05/02 08:00:57;;;;;;;16.73;11.35;;;;;;;;;;5113010;28;20075;-69
2023/05/02 08:03:24;;;;;;;14.98;9.65;;;;;;;;;;5113049;28;20043;-69
2023/05/02 08:05:50;;;;;;;15.30;9.65;;;;;;;;;;5113094;28;20127;-69
2023/05/02 08:08:17;;;;;;;13.77;9.63;;;;;;;;;;5112588;28;20050;-69
2023/05/02 08:10:44;;;;;;;17.30;10.13;;;;;;;;;;5113027;28;20039;-69
2023/05/02 08:13:12;;;;;;;13.80;9.27;;;;;;;;;;5111186;28;20055;-69
2023/05/02 08:15:38;;;;;;;16.15;9.63;;;;;;;;;;5112885;28;20048;-70
2023/05/02 08:18:05;;;;;;;13.98;9.07;;;;;;;;;;5112486;28;20493;-68
2023/05/02 08:20:31;;;;;;;15.95;9.10;;;;;;;;;;5113029;28;20515;-69
2023/05/02 08:22:58;;;;;;;13.77;9.05;;;;;;;;;;5112309;28;20508;-68
2023/05/02 08:25:24;;;;;;;11.73;8.32;;;;;;;;;;5112765;28;20043;-70
2023/05/02 08:27:51;;;;;;;16.23;8.80;;;;;;;;;;5111923;28;20485;-69
2023/05/02 08:30:19;;;;;;;13.65;8.98;;;;;;;;;;5112746;28;20047;-69
2023/05/02 08:32:46;;;;;;;13.10;8.60;;;;;;;;;;5112514;28;20062;-69
2023/05/02 08:35:12;;;;;;;15.52;9.10;;;;;;;;;;5112622;28;20089;-69
2023/05/02 08:37:39;;;;;;;11.82;8.32;;;;;;;;;;5112126;28;20497;-70
2023/05/02 08:40:11;;;;;;;13.98;8.90;;;;;;;;;;5112123;28;20044;-70
2023/05/02 08:42:41;;;;;;;12.30;8.47;;;;;;;;;;5112504;28;20416;-69
2023/05/02 08:45:09;;;;;;;14.70;9.15;;;;;;;;;;5112292;28;20572;-69
2023/05/02 08:47:40;;;;;;;13.95;8.43;;;;;;;;;;5112333;28;20054;-70
2023/05/02 08:50:08;;;;;;;12.82;8.02;;;;;;;;;;5112095;28;20481;-69
2023/05/02 08:52:35;;;;;;;12.35;7.68;;;;;;;;;;5112635;28;20047;-70
2023/05/02 08:55:03;;;;;;;15.18;8.57;;;;;;;;;;5112225;28;20065;-68
2023/05/02 08:57:30;;;;;;;13.98;8.35;;;;;;;;;;5111742;28;20274;-69
2023/05/02 08:59:56;;;;;;;12.93;8.25;;;;;;;;;;5111732;28;20047;-69
2023/05/02 09:02:36;;;;;;;15.93;8.88;;;;;;;;;;5112425;28;20044;-69
2023/05/02 09:05:07;;;;;;;12.27;7.78;;;;;;;;;;5112152;28;20051;-69
2023/05/02 09:07:45;;;;;;;15.15;8.93;;;;;;;;;;5111464;28;20060;-70
2023/05/02 09:10:11;;;;;;;14.15;8.23;;;;;;;;;;5111705;28;20039;-70
2023/05/02 09:12:38;;;;;;;12.25;7.22;;;;;;;;;;5111874;28;20098;-70
2023/05/02 09:15:16;;;;;;;13.05;7.45;;;;;;;;;;5111862;28;20043;-69
2023/05/02 09:17:44;;;;;;;13.10;6.53;;;;;;;;;;5111401;28;20128;-70
2023/05/02 09:20:13;;;;;;;11.30;6.07;;;;;;;;;;5111310;28;20040;-69
2023/05/02 09:22:48;;;;;;;11.63;6.45;;;;;;;;;;5111637;28;20048;-69
2023/05/02 09:25:15;;;;;;;11.07;6.38;;;;;;;;;;5111070;28;20471;-69
2023/05/02 09:27:53;;;;;;;10.88;6.55;;;;;;;;;;5111276;28;20199;-69
2023/05/02 09:30:22;;;;;;;11.63;7.57;;;;;;;;;;5110890;28;20079;-69
2023/05/02 09:32:51;;;;;;;11.70;6.70;;;;;;;;;;5111501;28;20047;-69
2023/05/02 09:35:22;;;;;;;10.52;6.63;;;;;;;;;;5110968;28;20052;-69
2023/05/02 09:37:51;;;;;;;10.67;6.60;;;;;;;;;;5111492;28;20112;-70
2023/05/02 09:40:18;;;;;;;9.70;5.90;;;;;;;;;;5110986;28;20040;-69
2023/05/02 09:42:44;;;;;;;7.97;5.38;;;;;;;;;;5111114;28;20051;-69
2023/05/02 09:45:20;;;;;;;10.30;5.60;;;;;;;;;;5111170;28;20044;-70
2023/05/02 09:47:47;;;;;;;8.85;5.32;;;;;;;;;;5110932;28;20077;-69
2023/05/02 09:50:32;;;;;;;9.30;5.00;;;;;;;;;;5110891;28;20047;-69
2023/05/02 09:53:03;;;;;;;7.20;5.13;;;;;;;;;;5110997;28;20047;-69
2023/05/02 09:55:30;;;;;;;9.23;6.28;;;;;;;;;;5110609;28;20058;-69
2023/05/02 09:57:57;;;;;;;10.60;5.72;;;;;;;;;;5111114;28;20071;-69
2023/05/02 10:00:38;;;;;;;10.48;6.28;;;;;;;;;;5111056;28;20043;-70
2023/05/02 10:03:06;;;;;;;10.18;6.05;;;;;;;;;;5110878;28;20057;-69
2023/05/02 10:05:37;;;;;;;10.18;6.40;;;;;;;;;;5110784;28;20489;-69
2023/05/02 10:08:04;;;;;;;10.65;6.00;;;;;;;;;;5110479;28;20047;-70
2023/05/02 10:10:33;;;;;;;12.90;6.80;;;;;;;;;;5110991;28;20520;-69
2023/05/02 10:13:01;;;;;;;10.43;6.18;;;;;;;;;;5110394;28;20084;-70
2023/05/02 10:15:30;;;;;;;12.35;6.40;;;;;;;;;;5110846;28;20048;-70
2023/05/02 10:17:59;;;;;;;11.68;6.90;;;;;;;;;;5110354;28;20040;-69
2023/05/02 10:20:31;;;;;;;11.80;6.78;;;;;;;;;;5110347;28;20048;-70
2023/05/02 10:23:01;;;;;;;10.40;6.47;;;;;;;;;;5110630;28;20044;-69
2023/05/02 10:25:28;;;;;;;10.98;6.80;;;;;;;;;;5110544;28;20120;-70
2023/05/02 10:27:56;;;;;;;10.27;6.60;;;;;;;;;;5109961;28;20417;-69
2023/05/02 10:30:24;;;;;;;12.02;6.38;;;;;;;;;;5110511;28;20543;-69
2023/05/02 10:32:52;;;;;;;10.73;6.68;;;;;;;;;;5109878;28;20050;-69
2023/05/02 10:35:19;;;;;;;9.18;6.05;;;;;;;;;;5110484;28;20052;-70
2023/05/02 10:37:48;;;;;;;9.65;6.53;;;;;;;;;;5109403;28;20055;-70
2023/05/02 10:40:16;;;;;;;9.50;6.10;;;;;;;;;;5110328;28;20052;-70
2023/05/02 10:42:45;;;;;;;8.85;5.80;;;;;;;;;;5110263;28;20131;-69
2023/05/02 10:45:13;;;;;;;7.68;4.88;;;;;;;;;;5110366;28;20061;-69
2023/05/02 10:47:40;;;;;;;7.90;4.80;;;;;;;;;;5109881;28;20120;-69
2023/05/02 10:50:08;;;;;;;8.10;4.28;;;;;;;;;;5110429;28;20535;-69
2023/05/02 10:52:36;;;;;;;7.00;4.32;;;;;;;;;;5109944;28;20489;-69
2023/05/02 10:55:21;;;;;;;7.68;4.32;;;;;;;;;;5110093;28;20059;-70
2023/05/02 10:58:22;;;;;;;6.07;4.72;;;;;;;;;;5107201;22;20046;-66
2023/05/02 11:00:49;;;;;;;8.95;5.50;;;;;;;;;;5090056;28;20063;-65
2023/05/02 11:03:54;;;;;;;7.85;4.65;;;;;;;;;;5090028;28;20048;-66
2023/05/02 11:06:20;;;;;;;7.05;4.18;;;;;;;;;;5090433;28;20048;-65
2023/05/02 11:08:47;;;;;;;5.75;4.68;;;;;;;;;;5089689;28;20047;-65
2023/05/02 11:11:41;;;;;;;6.15;3.78;;;;;;;;;;5090312;28;20055;-65
2023/05/02 11:14:08;;;;;;;7.85;5.13;;;;;;;;;;5082306;28;20413;-64
2023/05/02 11:17:06;;;;;;;6.85;4.80;;;;;;;;;;5089757;28;20444;-65
2023/05/02 11:20:25;;;;;;;5.75;3.72;;;;;;;;;;5089837;28;20048;-65
2023/05/02 11:22:53;;;;;;;4.45;3.28;;;;;;;;;;5089439;28;20479;-67
2023/05/02 11:25:34;;;;;;;3.92;2.80;;;;;;;;;;5091742;28;20048;-65
2023/05/02 11:28:10;;;;;;;3.22;2.63;;;;;;;;;;5089168;28;20056;-66
2023/05/02 11:30:42;;;;;;;14.65;10.93;;;;;;;;;;5090153;28;20070;-66
2023/05/02 11:33:19;;;;;;;3.63;2.88;;;;;;;;;;5089444;28;20048;-64
2023/05/02 11:35:47;;;;;;;2.90;2.60;;;;;;;;;;5089967;28;20048;-66
2023/05/02 11:38:21;;;;;;;2.30;2.00;;;;;;;;;;5089599;28;20135;-66
2023/05/02 11:40:56;;;;;;;3.05;2.13;;;;;;;;;;5090039;28;20078;-67
2023/05/02 11:43:26;;;;;;;2.63;2.25;;;;;;;;;;5090079;28;20058;-66
2023/05/02 11:45:53;;;;;;;3.10;2.30;;;;;;;;;;5089637;28;20069;-65
2023/05/02 11:48:26;;;;;;;2.38;1.90;;;;;;;;;;5091424;28;20052;-66
2023/05/02 11:50:54;;;;;;;;;;;;;;;;;;5093393;28;20048;-65
2023/05/02 11:53:30;;;;;;;2.65;2.00;;;;;;;;;;5092783;28;19972;-66
2023/05/02 11:56:07;;;;;;;2.63;1.80;;;;;;;;;;5092804;28;20097;-65
2023/05/02 11:58:37;;;;;;;1.67;1.30;;;;;;;;;;5092746;28;20052;-65
2023/05/02 12:01:20;;;;;;;1.80;1.52;;;;;;;;;;5092760;28;20079;-65
2023/05/02 12:03:48;;;;;;;1.85;1.70;;;;;;;;;;5092809;28;20121;-65
2023/05/02 12:06:17;;;;;;;3.10;1.90;;;;;;;;;;5092935;28;20074;-65
2023/05/02 12:08:45;;;;;;;2.33;1.45;;;;;;;;;;5092316;28;20558;-65
2023/05/02 12:11:14;;;;;;;1.70;1.40;;;;;;;;;;5093085;28;20410;-65
2023/05/02 12:13:47;;;;;;;2.53;1.45;;;;;;;;;;5092932;28;20490;-65
2023/05/02 12:16:14;;;;;;;1.50;1.20;;;;;;;;;;5092811;28;20485;-66
2023/05/02 12:18:41;;;;;;;1.95;1.40;;;;;;;;;;5093124;28;20056;-65
2023/05/02 12:21:08;;;;;;;3.05;1.40;;;;;;;;;;5092404;28;20044;-66
2023/05/02 12:23:35;;;;;;;1.30;1.20;;;;;;;;;;5092949;28;20405;-65
2023/05/02 12:26:16;;;;;;;2.25;1.30;;;;;;;;;;5092234;28;20140;-66
2023/05/02 12:28:53;;;;;;;2.05;1.38;;;;;;;;;;5092023;28;20048;-65
2023/05/02 12:31:20;;;;;;;1.48;1.25;;;;;;;;;;5092176;28;20048;-65
2023/05/02 12:33:49;;;;;;;1.42;1.02;;;;;;;;;;5091819;28;20508;-66
2023/05/02 12:36:16;;;;;;;1.85;1.10;;;;;;;;;;5091826;28;20518;-66
2023/05/02 12:38:49;;;;;;;1.55;1.30;;;;;;;;;;5092008;28;20044;-66
2023/05/02 12:41:16;;;;;;;1.30;1.05;;;;;;;;;;5091887;28;20056;-65
2023/05/02 12:43:46;;;;;;;1.45;1.00;;;;;;;;;;5091816;28;20068;-66
2023/05/02 12:46:18;;;;;;;2.13;1.00;;;;;;;;;;5091411;28;20047;-66
2023/05/02 12:48:44;;;;;;;1.63;1.20;;;;;;;;;;5091678;28;20044;-67
2023/05/02 12:51:22;;;;;;;1.45;1.15;;;;;;;;;;5091556;28;20044;-66
2023/05/02 12:53:48;;;;;;;2.05;1.48;;;;;;;;;;5091751;28;20044;-66
2023/05/02 12:56:15;;;;;;;1.27;1.08;;;;;;;;;;5091407;28;20040;-66
2023/05/02 12:58:44;;;;;;;2.45;1.27;;;;;;;;;;5090905;28;20048;-67
2023/05/02 13:01:11;;;;;;;1.58;1.17;;;;;;;;;;5091374;28;20087;-66
2023/05/02 13:03:40;;;;;;;1.20;1.10;;;;;;;;;;5091581;28;20055;-66
2023/05/02 13:06:06;;;;;;;1.33;1.00;;;;;;;;;;5091152;28;20040;-68
2023/05/02 13:08:34;;;;;;;0.90;0.90;;;;;;;;;;5091142;28;20048;-67
2023/05/02 13:11:01;;;;;;;0.90;0.90;;;;;;;;;;5092031;28;20052;-66
2023/05/02 13:13:28;;;;;;;2.15;0.70;;;;;;;;;;5091589;28;20409;-67
2023/05/02 13:15:55;;;;;;;1.30;0.90;;;;;;;;;;5091596;28;20418;-66
2023/05/02 13:18:22;;;;;;;2.40;1.10;;;;;;;;;;5091192;28;20390;-66
2023/05/02 13:20:49;;;;;;;1.13;0.88;;;;;;;;;;5091372;28;20046;-66
2023/05/02 13:23:16;;;;;;;2.53;0.93;;;;;;;;;;5091392;28;20075;-67
2023/05/02 13:25:43;;;;;;;1.17;0.80;;;;;;;;;;5090928;28;20425;-66
2023/05/02 13:28:09;;;;;;;0.80;0.80;;;;;;;;;;5090822;28;20417;-67
2023/05/02 13:30:36;;;;;;;1.15;0.80;;;;;;;;;;5091274;28;20046;-67
2023/05/02 13:33:03;;;;;;;1.85;0.80;;;;;;;;;;5090817;28;20055;-67
2023/05/02 13:35:30;;;;;;;1.33;1.00;;;;;;;;;;5091192;28;20047;-68
2023/05/02 13:37:57;;;;;;;1.00;0.82;;;;;;;;;;5090498;28;20111;-67
2023/05/02 13:40:24;;;;;;;1.00;0.80;;;;;;;;;;5091020;28;20040;-68
2023/05/02 13:42:50;;;;;;;1.27;0.88;;;;;;;;;;5090746;28;20067;-67
2023/05/02 13:45:17;;;;;;;0.80;0.80;;;;;;;;;;5091013;28;20417;-67
2023/05/02 13:47:48;;;;;;;1.70;0.70;;;;;;;;;;5090171;28;20051;-67
2023/05/02 13:50:15;;;;;;;0.60;0.60;;;;;;;;;;5091059;28;20417;-68
2023/05/02 13:52:42;;;;;;;0.85;0.80;;;;;;;;;;5090381;28;20055;-68
2023/05/02 13:55:12;;;;;;;0.98;0.90;;;;;;;;;;5090792;28;20401;-67
2023/05/02 13:57:39;;;;;;;3.58;0.88;;;;;;;;;;5090575;28;20058;-67
2023/05/02 14:00:08;;;;;;;3.42;1.10;;;;;;;;;;5090591;28;20558;-67
2023/05/02 14:02:38;;;;;;;1.80;1.08;;;;;;;;;;5090484;28;20048;-68
2023/05/02 14:05:06;;;;;;;1.27;0.82;;;;;;;;;;5090797;28;20304;-68
2023/05/02 14:07:32;;;;;;;1.73;1.00;;;;;;;;;;5090147;28;20134;-67
2023/05/02 14:10:01;;;;;;;1.48;1.05;;;;;;;;;;5090235;28;20040;-67
2023/05/02 14:12:30;;;;;;;1.25;0.77;;;;;;;;;;5089407;28;20386;-68
2023/05/02 14:14:57;;;;;;;1.08;0.90;;;;;;;;;;5090151;28;20545;-67
2023/05/02 14:17:24;;;;;;;4.65;1.33;;;;;;;;;;5090421;28;20044;-68
2023/05/02 14:19:51;;;;;;;2.10;1.05;;;;;;;;;;5089997;28;20050;-68
2023/05/02 14:22:18;;;;;;;1.05;0.82;;;;;;;;;;5090331;28;20113;-68
2023/05/02 14:24:44;;;;;;;0.73;0.70;;;;;;;;;;5090325;28;20059;-68
2023/05/02 14:27:16;;;;;;;1.10;1.00;;;;;;;;;;5090079;28;20040;-67
2023/05/02 14:29:44;;;;;;;1.73;0.90;;;;;;;;;;5089880;28;20516;-67
2023/05/02 14:32:11;;;;;;;1.35;0.90;;;;;;;;;;5090355;28;20502;-67
2023/05/02 14:34:37;;;;;;;3.90;1.00;;;;;;;;;;5089464;28;20048;-67
2023/05/02 14:37:04;;;;;;;1.15;0.80;;;;;;;;;;5089715;28;20050;-67
2023/05/02 14:39:31;;;;;;;0.90;0.90;;;;;;;;;;5090020;28;20066;-66
2023/05/02 14:41:57;;;;;;;1.02;1.02;;;;;;;;;;5076969;28;20052;-67
2023/05/02 14:44:24;;;;;;;1.60;1.10;;;;;;;;;;5069514;28;20044;-68
2023/05/02 14:46:55;;;;;;;3.17;1.42;;;;;;;;;;5069272;28;20048;-67
2023/05/02 14:49:23;;;;;;;1.58;1.00;;;;;;;;;;5069716;28;20102;-68